createdAt,value
2018-07-05T00:01:57.219Z,19.09
2018-07-05T00:04:36.759Z,19.21
2018-07-05T00:07:16.125Z,19.18
2018-07-05T00:09:55.584Z,19.06
2018-07-05T00:12:34.964Z,18.95
2018-07-05T00:15:14.259Z,18.80
2018-07-05T00:17:53.787Z,18.59
2018-07-05T00:20:33.220Z,18.56
2018-07-05T00:23:12.585Z,18.67
2018-07-05T00:25:52.068Z,18.72
2018-07-05T00:28:31.369Z,18.70
2018-07-05T00:31:10.810Z,18.73
2018-07-05T00:33:50.142Z,18.59
2018-07-05T00:36:29.597Z,18.61
2018-07-05T00:39:24.931Z,18.59
2018-07-05T00:42:04.235Z,18.57
2018-07-05T00:44:43.564Z,18.60
2018-07-05T00:47:23.044Z,18.56
2018-07-05T00:50:02.403Z,18.55
2018-07-05T00:52:41.887Z,18.55
2018-07-05T00:55:21.251Z,18.68
2018-07-05T00:58:00.691Z,18.85
2018-07-05T01:00:40.044Z,19.00
2018-07-05T01:03:19.774Z,18.87
2018-07-05T01:05:59.196Z,18.69
2018-07-05T01:08:38.759Z,18.42
2018-07-05T01:11:18.215Z,18.25
2018-07-05T01:13:57.653Z,18.22
2018-07-05T01:16:37.015Z,18.17
2018-07-05T01:19:16.450Z,18.32
2018-07-05T01:21:55.988Z,17.89
2018-07-05T01:24:35.408Z,18.02
2018-07-05T01:27:14.787Z,17.89
2018-07-05T01:29:54.268Z,17.69
2018-07-05T01:32:33.639Z,17.61
2018-07-05T01:35:12.920Z,17.67
2018-07-05T01:37:52.229Z,17.77
2018-07-05T01:40:31.859Z,17.74
2018-07-05T01:43:11.271Z,17.88
2018-07-05T01:45:50.622Z,17.86
2018-07-05T01:48:30.220Z,17.78
2018-07-05T01:51:09.451Z,17.73
2018-07-05T01:53:48.795Z,17.75
2018-07-05T01:56:28.319Z,17.62
2018-07-05T01:59:07.710Z,17.45
2018-07-05T02:01:47.184Z,17.25
2018-07-05T02:04:26.621Z,17.21
2018-07-05T02:07:05.901Z,17.21
2018-07-05T02:09:45.524Z,17.23
2018-07-05T02:12:24.963Z,17.26
2018-07-05T02:15:04.353Z,17.28
2018-07-05T02:17:43.958Z,17.09
2018-07-05T02:20:23.486Z,16.96
2018-07-05T02:23:02.946Z,16.84
2018-07-05T02:25:42.180Z,16.73
2018-07-05T02:28:21.608Z,16.66
2018-07-05T02:31:00.943Z,16.66
2018-07-05T02:33:40.470Z,16.86
2018-07-05T02:36:19.740Z,16.94
2018-07-05T02:39:04.630Z,16.95
2018-07-05T02:41:44.094Z,16.90
2018-07-05T02:44:23.369Z,16.91
2018-07-05T02:47:02.831Z,16.94
2018-07-05T02:49:42.252Z,16.75
2018-07-05T02:52:21.853Z,16.63
2018-07-05T02:55:01.292Z,16.53
2018-07-05T02:57:40.696Z,16.50
2018-07-05T03:00:19.987Z,16.44
2018-07-05T03:02:59.498Z,16.42
2018-07-05T03:05:38.989Z,16.46
2018-07-05T03:08:18.219Z,16.44
2018-07-05T03:10:57.641Z,16.37
2018-07-05T03:13:37.167Z,16.45
2018-07-05T03:16:16.520Z,16.50
2018-07-05T03:18:55.981Z,16.61
2018-07-05T03:21:35.221Z,16.62
2018-07-05T03:24:14.612Z,16.47
2018-07-05T03:26:53.868Z,16.41
2018-07-05T03:29:33.351Z,16.35
2018-07-05T03:32:12.697Z,16.40
2018-07-05T03:34:52.276Z,16.40
2018-07-05T03:37:31.597Z,16.34
2018-07-05T03:40:10.979Z,16.38
2018-07-05T03:42:50.303Z,16.45
2018-07-05T03:45:29.740Z,16.41
2018-07-05T03:48:09.232Z,16.37
2018-07-05T03:50:48.607Z,16.46
2018-07-05T03:53:28.022Z,16.67
2018-07-05T03:56:07.411Z,16.87
2018-07-05T03:58:46.714Z,17.10
2018-07-05T04:01:25.990Z,17.20
2018-07-05T04:04:05.439Z,17.36
2018-07-05T04:06:44.789Z,17.43
2018-07-05T04:09:24.287Z,17.63
2018-07-05T04:12:03.584Z,17.60
2018-07-05T04:14:43.100Z,17.52
2018-07-05T04:17:22.529Z,17.29
2018-07-05T04:20:01.828Z,17.17
2018-07-05T04:22:41.225Z,17.17
2018-07-05T04:25:20.488Z,17.15
2018-07-05T04:27:59.896Z,17.27
2018-07-05T04:30:39.247Z,17.39
2018-07-05T04:33:18.791Z,17.50
2018-07-05T04:35:58.174Z,17.45
2018-07-05T04:38:37.500Z,17.43
2018-07-05T04:41:16.947Z,17.47
2018-07-05T04:43:56.449Z,17.72
2018-07-05T04:46:35.754Z,17.77
2018-07-05T04:49:15.134Z,17.83
2018-07-05T04:51:54.431Z,17.73
2018-07-05T04:54:33.879Z,17.77
2018-07-05T04:57:13.480Z,17.85
2018-07-05T04:59:52.905Z,18.06
2018-07-05T05:02:32.140Z,18.15
2018-07-05T05:05:11.543Z,18.41
2018-07-05T05:07:53.780Z,18.60
2018-07-05T05:10:33.258Z,18.64
2018-07-05T05:13:12.871Z,18.69
2018-07-05T05:15:52.235Z,18.71
2018-07-05T05:18:31.727Z,18.82
2018-07-05T05:21:10.977Z,18.89
2018-07-05T05:23:50.534Z,19.01
2018-07-05T05:26:30.035Z,19.18
2018-07-05T05:29:09.515Z,19.37
2018-07-05T05:31:49.300Z,19.63
2018-07-05T05:34:28.733Z,19.75
2018-07-05T05:37:08.163Z,19.79
2018-07-05T05:39:47.572Z,19.57
2018-07-05T05:42:26.831Z,19.83
2018-07-05T05:45:06.245Z,20.03
2018-07-05T05:47:46.180Z,20.26
2018-07-05T05:50:25.636Z,20.32
2018-07-05T05:53:04.936Z,20.51
2018-07-05T05:55:44.424Z,20.42
2018-07-05T05:58:23.858Z,20.61
2018-07-05T06:01:03.123Z,20.88
2018-07-05T06:03:42.507Z,21.11
2018-07-05T06:06:21.873Z,21.11
2018-07-05T06:09:01.382Z,21.18
2018-07-05T06:11:40.772Z,21.14
2018-07-05T06:14:20.127Z,21.15
2018-07-05T06:16:59.545Z,21.30
2018-07-05T06:19:38.970Z,21.20
2018-07-05T06:22:18.447Z,21.23
2018-07-05T06:24:57.788Z,21.55
2018-07-05T06:27:37.208Z,21.67
2018-07-05T06:30:16.571Z,21.63
2018-07-05T06:32:56.048Z,21.95
2018-07-05T06:35:35.437Z,21.86
2018-07-05T06:38:14.836Z,21.90
2018-07-05T06:40:54.443Z,22.07
2018-07-05T06:43:33.816Z,22.33
2018-07-05T06:46:13.511Z,22.38
2018-07-05T06:48:52.950Z,22.40
2018-07-05T06:51:32.303Z,22.30
2018-07-05T06:54:11.596Z,22.41
2018-07-05T06:56:50.906Z,22.60
2018-07-05T06:59:30.342Z,22.72
2018-07-05T07:05:02.665Z,23.28
2018-07-05T07:07:42.027Z,23.48
2018-07-05T07:10:21.557Z,23.47
2018-07-05T07:13:00.970Z,23.75
2018-07-05T07:15:40.491Z,23.83
2018-07-05T07:18:19.875Z,23.84
2018-07-05T07:20:59.502Z,23.44
2018-07-05T07:23:38.787Z,23.30
2018-07-05T07:26:18.315Z,23.18
2018-07-05T07:28:57.718Z,23.39
2018-07-05T07:31:37.269Z,23.56
2018-07-05T07:34:16.546Z,23.55
2018-07-05T07:36:55.941Z,23.69
2018-07-05T07:39:35.376Z,23.97
2018-07-05T07:42:02.458Z,23.81
2018-07-05T07:44:29.522Z,23.91
2018-07-05T07:46:56.648Z,23.87
2018-07-05T07:49:23.709Z,24.16
2018-07-05T07:51:50.808Z,24.27
2018-07-05T07:54:17.866Z,24.29
2018-07-05T07:56:44.939Z,24.75
2018-07-05T07:59:12.020Z,24.87
2018-07-05T08:01:39.091Z,24.97
2018-07-05T08:04:06.207Z,24.76
2018-07-05T08:06:33.285Z,24.82
2018-07-05T08:09:00.435Z,24.63
2018-07-05T08:11:27.506Z,24.73
2018-07-05T08:13:54.590Z,24.85
2018-07-05T08:16:21.659Z,25.06
2018-07-05T08:18:48.735Z,24.75
2018-07-05T08:21:15.811Z,24.98
2018-07-05T08:23:42.912Z,24.91
2018-07-05T08:26:09.985Z,24.77
2018-07-05T08:28:37.078Z,24.82
2018-07-05T08:31:04.150Z,24.95
2018-07-05T08:33:31.244Z,24.98
2018-07-05T08:35:58.335Z,25.15
2018-07-05T08:38:25.406Z,25.17
2018-07-05T08:40:52.467Z,25.20
2018-07-05T08:43:19.592Z,25.18
2018-07-05T08:45:46.664Z,25.26
2018-07-05T08:48:14.156Z,25.17
2018-07-05T08:50:41.244Z,25.21
2018-07-05T08:53:08.319Z,25.17
2018-07-05T08:55:35.423Z,25.18
2018-07-05T08:58:02.533Z,25.31
2018-07-05T09:00:29.619Z,25.29
2018-07-05T09:02:56.686Z,25.29
2018-07-05T09:05:23.776Z,25.06
2018-07-05T09:07:50.890Z,25.04
2018-07-05T09:10:17.994Z,25.06
2018-07-05T09:12:45.062Z,24.93
2018-07-05T09:15:12.153Z,25.25
2018-07-05T09:17:39.292Z,25.54
2018-07-05T09:20:06.315Z,25.52
2018-07-05T09:22:33.379Z,25.30
2018-07-05T09:25:00.459Z,25.48
2018-07-05T09:27:27.527Z,25.82
2018-07-05T09:29:54.598Z,26.15
2018-07-05T09:32:21.671Z,25.91
2018-07-05T09:34:48.759Z,25.87
2018-07-05T09:37:15.920Z,25.97
2018-07-05T09:39:42.931Z,26.06
2018-07-05T09:42:10.005Z,25.94
2018-07-05T09:44:37.096Z,25.92
2018-07-05T09:47:04.309Z,25.60
2018-07-05T09:49:31.279Z,25.59
2018-07-05T09:51:58.367Z,25.59
2018-07-05T09:54:25.430Z,25.56
2018-07-05T09:56:52.857Z,25.68
2018-07-05T09:59:19.906Z,25.68
2018-07-05T10:01:46.992Z,25.58
2018-07-05T10:04:14.154Z,25.49
2018-07-05T10:06:41.307Z,25.80
2018-07-05T10:09:08.391Z,26.08
2018-07-05T10:11:35.538Z,26.20
2018-07-05T10:14:02.624Z,26.28
2018-07-05T10:16:29.703Z,26.48
2018-07-05T10:18:56.829Z,26.45
2018-07-05T10:21:23.902Z,26.26
2018-07-05T10:23:50.974Z,26.15
2018-07-05T10:26:18.072Z,26.09
2018-07-05T10:28:57.303Z,26.42
2018-07-05T10:31:36.755Z,26.65
2018-07-05T10:34:03.832Z,26.93
2018-07-05T10:36:30.907Z,27.16
2018-07-05T10:38:57.978Z,27.09
2018-07-05T10:41:37.568Z,26.91
2018-07-05T10:44:16.856Z,27.16
2018-07-05T10:46:56.281Z,26.89
2018-07-05T10:49:35.594Z,26.68
2018-07-05T10:52:15.112Z,26.39
2018-07-05T10:54:54.627Z,26.62
2018-07-05T10:57:34.044Z,26.77
2018-07-05T11:00:13.351Z,27.03
2018-07-05T11:02:52.713Z,27.18
2018-07-05T11:05:32.234Z,27.28
2018-07-05T11:08:11.412Z,27.41
2018-07-05T11:10:50.852Z,27.19
2018-07-05T11:13:30.288Z,27.24
2018-07-05T11:16:09.623Z,27.25
2018-07-05T11:18:49.110Z,27.11
2018-07-05T11:21:28.446Z,27.24
2018-07-05T11:24:07.982Z,27.45
2018-07-05T11:26:47.293Z,27.15
2018-07-05T11:29:26.803Z,27.46
2018-07-05T11:32:06.164Z,27.64
2018-07-05T11:34:45.630Z,27.67
2018-07-05T11:37:25.082Z,27.89
2018-07-05T11:40:04.479Z,27.89
2018-07-05T11:42:43.824Z,28.08
2018-07-05T11:45:23.230Z,28.35
2018-07-05T11:48:02.501Z,28.50
2018-07-05T11:50:41.960Z,28.15
2018-07-05T11:53:21.332Z,28.31
2018-07-05T11:56:00.868Z,28.29
2018-07-05T11:58:40.357Z,28.59
2018-07-05T12:01:19.843Z,28.28
2018-07-05T12:03:59.167Z,27.94
2018-07-05T12:06:38.602Z,27.86
2018-07-05T12:09:18.059Z,27.79
2018-07-05T12:11:57.512Z,28.03
2018-07-05T12:14:36.910Z,27.99
2018-07-05T12:17:16.299Z,28.07
2018-07-05T12:19:55.623Z,28.17
2018-07-05T12:22:35.130Z,27.84
2018-07-05T12:25:14.456Z,28.38
2018-07-05T12:27:53.749Z,28.03
2018-07-05T12:30:33.107Z,27.98
2018-07-05T12:33:12.672Z,27.95
2018-07-05T12:35:51.963Z,27.77
2018-07-05T12:38:31.339Z,27.81
2018-07-05T12:41:10.911Z,27.57
2018-07-05T12:43:50.275Z,27.85
2018-07-05T12:46:29.781Z,27.80
2018-07-05T12:49:08.968Z,27.61
2018-07-05T12:51:48.498Z,27.88
2018-07-05T12:54:27.850Z,27.90
2018-07-05T12:57:07.204Z,27.57
2018-07-05T12:59:46.724Z,27.40
2018-07-05T13:02:26.051Z,27.33
2018-07-05T13:05:05.496Z,27.44
2018-07-05T13:07:44.766Z,28.08
2018-07-05T13:10:24.220Z,28.02
2018-07-05T13:13:03.707Z,28.33
2018-07-05T13:15:43.132Z,28.71
2018-07-05T13:18:22.629Z,28.74
2018-07-05T13:21:01.919Z,28.62
2018-07-05T13:23:41.218Z,28.51
2018-07-05T13:26:20.688Z,28.59
2018-07-05T13:29:00.066Z,28.28
2018-07-05T13:31:39.331Z,27.86
2018-07-05T13:34:18.876Z,27.46
2018-07-05T13:36:58.324Z,27.34
2018-07-05T13:39:37.683Z,27.80
2018-07-05T13:42:17.165Z,27.37
2018-07-05T13:44:56.487Z,27.35
2018-07-05T13:47:36.034Z,27.55
2018-07-05T13:50:15.406Z,27.35
2018-07-05T13:52:54.763Z,27.42
2018-07-05T13:55:34.092Z,27.48
2018-07-05T13:58:13.410Z,27.70
2018-07-05T14:00:53.119Z,27.25
2018-07-05T14:03:32.554Z,26.77
2018-07-05T14:06:12.070Z,26.48
2018-07-05T14:08:51.649Z,26.80
2018-07-05T14:11:31.047Z,26.90
2018-07-05T14:14:11.636Z,26.59
2018-07-05T14:16:51.259Z,26.55
2018-07-05T14:19:30.843Z,26.59
2018-07-05T14:22:10.227Z,26.49
2018-07-05T14:24:49.875Z,26.47
2018-07-05T14:27:29.292Z,26.37
2018-07-05T14:30:08.841Z,26.79
2018-07-05T14:32:48.781Z,26.85
2018-07-05T14:35:28.389Z,26.46
2018-07-05T14:38:08.222Z,26.66
2018-07-05T14:40:48.921Z,26.85
2018-07-05T14:43:28.510Z,26.96
2018-07-05T14:46:08.093Z,27.37
2018-07-05T14:48:48.298Z,27.69
2018-07-05T14:51:28.983Z,27.28
2018-07-05T14:54:08.926Z,27.15
2018-07-05T14:56:48.759Z,27.27
2018-07-05T14:59:28.329Z,27.31
2018-07-05T15:02:08.001Z,27.59
2018-07-05T15:04:47.378Z,28.07
2018-07-05T15:07:26.812Z,28.14
2018-07-05T15:10:06.298Z,28.11
2018-07-05T15:12:46.106Z,27.57
2018-07-05T15:15:25.857Z,27.53
2018-07-05T15:18:05.462Z,27.36
2018-07-05T15:20:45.402Z,27.41
2018-07-05T15:23:24.881Z,27.65
2018-07-05T15:26:04.551Z,27.73
2018-07-05T15:28:44.043Z,27.70
2018-07-05T15:31:23.423Z,27.50
2018-07-05T15:34:02.910Z,27.11
2018-07-05T15:36:42.312Z,26.94
2018-07-05T15:39:21.859Z,26.90
2018-07-05T15:42:01.356Z,26.64
2018-07-05T15:44:40.598Z,26.68
2018-07-05T15:47:20.050Z,26.76
2018-07-05T15:49:59.546Z,27.08
2018-07-05T15:52:38.988Z,27.12
2018-07-05T15:55:18.296Z,26.92
2018-07-05T15:57:57.743Z,26.95
2018-07-05T16:00:37.101Z,27.11
2018-07-05T16:03:16.592Z,26.71
2018-07-05T16:05:55.940Z,26.65
2018-07-05T16:08:35.416Z,26.67
2018-07-05T16:11:15.160Z,26.37
2018-07-05T16:13:54.667Z,26.34
2018-07-05T16:16:34.015Z,26.25
2018-07-05T16:19:13.543Z,26.32
2018-07-05T16:21:53.017Z,26.42
2018-07-05T16:24:32.404Z,26.09
2018-07-05T16:27:11.734Z,26.21
2018-07-05T16:29:51.230Z,25.91
2018-07-05T16:32:30.527Z,25.61
2018-07-05T16:35:09.967Z,25.75
2018-07-05T16:37:49.445Z,25.74
2018-07-05T16:40:28.963Z,25.82
2018-07-05T16:43:08.268Z,26.28
2018-07-05T16:45:47.564Z,26.51
2018-07-05T16:48:27.092Z,26.21
2018-07-05T16:51:06.481Z,26.10
2018-07-05T16:53:45.983Z,26.09
2018-07-05T16:56:25.302Z,26.43
2018-07-05T16:59:04.804Z,26.56
2018-07-05T17:01:44.235Z,26.72
2018-07-05T17:04:23.654Z,26.60
2018-07-05T17:07:03.007Z,26.77
2018-07-05T17:09:42.459Z,26.78
2018-07-05T17:12:21.837Z,26.73
2018-07-05T17:15:09.505Z,26.35
2018-07-05T17:17:49.104Z,26.60
2018-07-05T17:20:28.417Z,26.56
2018-07-05T17:23:07.802Z,26.63
2018-07-05T17:25:47.323Z,26.42
2018-07-05T17:28:26.869Z,26.43
2018-07-05T17:31:06.314Z,26.29
2018-07-05T17:33:45.823Z,26.06
2018-07-05T17:36:25.306Z,26.35
2018-07-05T17:39:05.608Z,26.39
2018-07-05T17:41:45.094Z,26.27
2018-07-05T17:44:24.943Z,26.08
2018-07-05T17:47:04.371Z,26.04
2018-07-05T17:49:43.965Z,25.81
2018-07-05T17:52:23.519Z,25.76
2018-07-05T17:55:02.979Z,25.88
2018-07-05T17:57:42.352Z,25.72
2018-07-05T18:00:21.853Z,25.50
2018-07-05T18:03:01.214Z,25.26
2018-07-05T18:05:40.610Z,24.97
2018-07-05T18:08:19.902Z,24.90
2018-07-05T18:10:59.487Z,24.97
2018-07-05T18:13:38.824Z,25.03
2018-07-05T18:16:18.361Z,24.99
2018-07-05T18:18:58.203Z,25.09
2018-07-05T18:21:39.365Z,25.04
2018-07-05T18:24:19.300Z,25.17
2018-07-05T18:27:00.599Z,25.13
2018-07-05T18:29:40.028Z,25.13
2018-07-05T18:32:19.722Z,25.30
2018-07-05T18:34:59.132Z,25.14
2018-07-05T18:37:39.195Z,25.03
2018-07-05T18:40:19.544Z,24.83
2018-07-05T18:42:59.294Z,24.92
2018-07-05T18:45:39.527Z,25.03
2018-07-05T18:48:19.365Z,24.89
2018-07-05T18:50:59.520Z,24.86
2018-07-05T18:53:39.081Z,24.96
2018-07-05T18:56:18.650Z,24.62
2018-07-05T18:58:58.829Z,24.63
2018-07-05T19:01:38.780Z,24.66
2018-07-05T19:04:18.499Z,24.48
2018-07-05T19:06:58.324Z,24.40
2018-07-05T19:09:40.433Z,24.36
2018-07-05T19:12:21.473Z,24.32
2018-07-05T19:15:00.952Z,24.30
2018-07-05T19:17:41.155Z,24.22
2018-07-05T19:20:22.989Z,24.36
2018-07-05T19:23:02.886Z,24.21
2018-07-05T19:25:43.608Z,24.15
2018-07-05T19:28:23.901Z,23.98
2018-07-05T19:31:04.722Z,24.00
2018-07-05T19:33:48.069Z,24.04
2018-07-05T19:36:27.536Z,24.00
2018-07-05T19:39:08.141Z,23.89
2018-07-05T19:41:48.309Z,23.74
2018-07-05T19:44:27.837Z,23.72
2018-07-05T19:47:07.383Z,23.71
2018-07-05T19:49:47.730Z,23.60
2018-07-05T19:52:27.228Z,23.44
2018-07-05T19:55:07.241Z,23.48
2018-07-05T19:57:47.701Z,23.64
2018-07-05T20:00:27.188Z,23.77
2018-07-05T20:03:07.989Z,23.90
2018-07-05T20:05:49.253Z,23.64
2018-07-05T20:08:29.248Z,23.54
2018-07-05T20:11:08.651Z,23.61
2018-07-05T20:13:48.426Z,23.83
2018-07-05T20:16:29.910Z,23.65
2018-07-05T20:19:09.322Z,23.59
2018-07-05T20:21:49.582Z,23.66
2018-07-05T20:24:29.196Z,23.37
2018-07-05T20:27:09.927Z,23.38
2018-07-05T20:29:51.668Z,23.39
2018-07-05T20:32:32.181Z,23.32
2018-07-05T20:35:11.791Z,23.32
2018-07-05T20:37:51.669Z,23.31
2018-07-05T20:40:32.370Z,23.19
2018-07-05T20:43:12.258Z,23.25
2018-07-05T20:45:51.786Z,23.08
2018-07-05T20:48:34.077Z,23.19
2018-07-05T20:51:13.694Z,22.93
2018-07-05T20:53:53.248Z,22.94
2018-07-05T20:56:33.355Z,22.82
2018-07-05T20:59:12.947Z,22.76
2018-07-05T21:01:53.607Z,22.84
2018-07-05T21:04:33.389Z,22.75
2018-07-05T21:07:14.460Z,22.75
2018-07-05T21:09:53.973Z,22.68
2018-07-05T21:12:33.375Z,22.69
2018-07-05T21:15:13.440Z,22.61
2018-07-05T21:17:52.976Z,22.60
2018-07-05T21:20:34.306Z,22.62
2018-07-05T21:23:14.006Z,22.63
2018-07-05T21:25:53.759Z,22.54
2018-07-05T21:28:33.179Z,22.53
2018-07-05T21:31:13.059Z,22.73
2018-07-05T21:33:52.559Z,22.53
2018-07-05T21:36:31.926Z,22.43
2018-07-05T21:39:11.655Z,22.31
2018-07-05T21:41:51.204Z,22.35
2018-07-05T21:44:30.729Z,22.16
2018-07-05T21:47:10.107Z,22.14
2018-07-05T21:49:50.172Z,22.19
2018-07-05T21:52:30.533Z,22.18
2018-07-05T21:55:11.063Z,22.10
2018-07-05T21:57:51.041Z,22.06
2018-07-05T22:00:30.641Z,22.06
2018-07-05T22:03:11.158Z,22.00
2018-07-05T22:05:50.860Z,21.95
2018-07-05T22:08:30.437Z,21.93
2018-07-05T22:11:09.988Z,22.04
2018-07-05T22:13:49.382Z,22.14
2018-07-05T22:16:28.863Z,22.17
2018-07-05T22:19:13.794Z,22.30
2018-07-05T22:21:58.762Z,22.28
2018-07-05T22:24:43.800Z,22.21
2018-07-05T22:27:30.431Z,22.25
2018-07-05T22:30:15.347Z,22.38
2018-07-05T22:32:55.367Z,22.39
2018-07-05T22:35:37.396Z,22.36
2018-07-05T22:38:18.145Z,22.25
2018-07-05T22:41:00.701Z,22.20
2018-07-05T22:43:40.243Z,22.12
2018-07-05T22:46:19.821Z,22.14
2018-07-05T22:49:00.343Z,22.15
2018-07-05T22:51:39.938Z,22.20
2018-07-05T22:54:19.839Z,22.10
2018-07-05T22:56:59.647Z,22.12
2018-07-05T22:59:40.142Z,22.23
2018-07-05T23:02:20.446Z,22.17
2018-07-05T23:04:59.986Z,22.18
2018-07-05T23:07:39.428Z,22.12
2018-07-05T23:10:18.739Z,22.18
2018-07-05T23:12:58.138Z,22.02
2018-07-05T23:15:37.728Z,22.06
2018-07-05T23:18:17.235Z,22.08
2018-07-05T23:20:56.577Z,22.02
2018-07-05T23:23:36.007Z,21.86
2018-07-05T23:26:15.285Z,21.81
2018-07-05T23:28:54.700Z,21.82
2018-07-05T23:31:34.272Z,21.90
2018-07-05T23:34:13.628Z,21.88
2018-07-05T23:36:53.006Z,21.97
2018-07-05T23:39:32.355Z,21.96
2018-07-05T23:42:11.792Z,21.95
2018-07-05T23:44:51.206Z,22.01
2018-07-05T23:47:30.692Z,22.03
2018-07-05T23:50:10.163Z,22.06
2018-07-05T23:52:49.531Z,22.10
2018-07-05T23:55:29.036Z,22.13
2018-07-05T23:58:08.390Z,22.04
